Time;durP1;ratioP1;P1;durP2;ratioP2;P2;SDS_P1;SDS_P2;PMS_P1;PMS_P2;Temp;Humidity;BMP_temperature;BMP_pressure;BME280_temperature;BME280_humidity;BME280_pressure;Samples;Min_cycle;Max_cycle;Signal;HPM_P1;HPM_P2
2023/05/03 00:00:47;;;;;;;;;;;;;;;14.95;59.43;102764.84;5093785;28;19916;-51
2023/05/03 00:03:13;;;;;;;;;;;;;;;14.90;59.77;102764.56;5093993;28;19916;-53
2023/05/03 00:05:38;;;;;;;;;;;;;;;14.85;60.09;102758.88;5094031;28;19917;-52
2023/05/03 00:08:04;;;;;;;;;;;;;;;14.88;60.03;102758.50;5093683;28;19927;-50
2023/05/03 00:10:30;;;;;;;;;;;;;;;14.92;59.84;102762.53;5094157;28;19991;-54
2023/05/03 00:12:55;;;;;;;;;;;;;;;14.90;59.58;102767.25;5093862;28;19920;-51
2023/05/03 00:15:21;;;;;;;;;;;;;;;14.89;59.50;102754.78;5093790;28;19920;-54
2023/05/03 00:17:47;;;;;;;;;;;;;;;14.80;59.92;102759.38;5093652;28;19924;-53
2023/05/03 00:20:13;;;;;;;;;;;;;;;14.81;60.11;102763.75;5093509;28;19924;-53
2023/05/03 00:22:38;;;;;;;;;;;;;;;14.93;59.50;102766.88;5092635;28;19924;-50
2023/05/03 00:25:04;;;;;;;;;;;;;;;15.04;58.63;102761.09;5091894;28;19921;-50
2023/05/03 00:27:29;;;;;;;;;;;;;;;14.94;59.22;102757.78;5093610;28;19927;-52
2023/05/03 00:29:54;;;;;;;;;;;;;;;14.79;59.39;102759.56;5075955;28;19926;-51
2023/05/03 00:32:21;;;;;;;;;;;;;;;14.73;59.71;102758.41;5075796;28;19916;-50
2023/05/03 00:34:51;;;;;;;;;;;;;;;14.71;59.66;102755.88;5092694;28;19920;-48
2023/05/03 00:37:17;;;;;;;;;;;;;;;14.69;59.80;102751.69;5073029;28;19921;-51
2023/05/03 00:39:42;;;;;;;;;;;;;;;14.65;60.03;102761.09;5075543;28;19940;-56
2023/05/03 00:42:08;;;;;;;;;;;;;;;14.59;60.18;102758.09;5093003;28;19984;-51
2023/05/03 00:44:33;;;;;;;;;;;;;;;14.57;60.28;102762.00;5093052;28;19952;-51
2023/05/03 00:46:59;;;;;;;;;;;;;;;14.60;60.28;102761.66;5075557;28;19916;-54
2023/05/03 00:49:24;;;;;;;;;;;;;;;14.60;60.20;102759.78;5093089;28;19917;-53
2023/05/03 00:51:53;;;;;;;;;;;;;;;14.55;60.69;102758.66;5101207;28;19980;-51
2023/05/03 00:54:19;;;;;;;;;;;;;;;14.45;60.68;102754.28;5118899;28;19920;-53
2023/05/03 00:56:45;;;;;;;;;;;;;;;14.47;60.77;102754.97;5120723;28;19926;-53
2023/05/03 00:59:11;;;;;;;;;;;;;;;14.40;60.90;102762.06;5120498;28;19915;-55
2023/05/03 01:01:37;;;;;;;;;;;;;;;14.48;61.23;102755.81;5120791;28;19947;-52
2023/05/03 01:04:04;;;;;;;;;;;;;;;14.36;61.19;102757.19;5118080;28;19923;-50
2023/05/03 01:06:31;;;;;;;;;;;;;;;14.33;61.61;102755.72;5120684;28;19915;-53
2023/05/03 01:09:05;;;;;;;;;;;;;;;14.36;61.50;102752.66;5121537;28;19938;-54
2023/05/03 01:11:34;;;;;;;;;;;;;;;14.44;61.38;102758.00;5117056;28;19927;-52
2023/05/03 01:14:23;;;;;;;;;;;;;;;14.40;61.60;102761.22;5120882;28;19927;-53
2023/05/03 01:16:55;;;;;;;;;;;;;;;14.05;62.97;102748.03;5113935;28;19942;-51
2023/05/03 01:19:27;;;;;;;;;;;;;;;13.93;63.49;102757.47;5123186;28;19922;-52
2023/05/03 01:21:58;;;;;;;;;;;;;;;14.02;64.00;102759.13;5122192;28;19923;-52
2023/05/03 01:24:25;;;;;;;;;;;;;;;14.08;63.66;102763.84;5126209;28;19916;-54
2023/05/03 01:26:51;;;;;;;;;;;;;;;13.97;64.03;102761.50;5157571;27;19914;-54
2023/05/03 01:29:16;;;;;;;;;;;;;;;14.14;63.72;102757.78;5127132;28;19916;-54
2023/05/03 01:31:51;;;;;;;;;;;;;;;13.88;64.08;102758.84;5128184;28;19916;-52
2023/05/03 01:34:37;;;;;;;;;;;;;;;13.86;64.08;102760.88;5124672;28;19916;-54
2023/05/03 01:37:04;;;;;;;;;;;;;;;15.38;59.38;102761.72;5125647;28;19943;-49
2023/05/03 01:39:49;;;;;;;;;;;;;;;14.11;62.93;102752.75;5125340;28;19916;-56
2023/05/03 01:42:16;;;;;;;;;;;;;;;13.99;63.50;102757.66;5126830;28;19972;-56
2023/05/03 01:44:42;;;;;;;;;;;;;;;13.84;64.43;102754.81;5124597;28;19920;-53
2023/05/03 01:47:08;;;;;;;;;;;;;;;13.87;64.12;102757.16;5127587;28;19926;-53
2023/05/03 01:49:34;;;;;;;;;;;;;;;13.89;64.01;102751.59;5128679;28;19915;-54
2023/05/03 01:52:00;;;;;;;;;;;;;;;13.75;65.06;102759.38;5125072;28;19926;-50
2023/05/03 01:54:25;;;;;;;;;;;;;;;13.76;65.09;102754.81;5128199;28;19945;-53
2023/05/03 01:56:50;;;;;;;;;;;;;;;13.82;65.17;102756.81;5121891;28;19920;-52
2023/05/03 01:59:16;;;;;;;;;;;;;;;13.73;65.70;102756.00;5125552;28;19987;-51
2023/05/03 02:01:42;;;;;;;;;;;;;;;13.72;66.18;102761.53;5120975;28;19916;-52
2023/05/03 02:04:08;;;;;;;;;;;;;;;13.66;66.39;102762.22;5121073;28;19916;-54
2023/05/03 02:06:34;;;;;;;;;;;;;;;13.72;66.71;102767.75;5123264;28;19915;-53
2023/05/03 02:09:00;;;;;;;;;;;;;;;13.65;66.98;102760.53;5122550;28;19938;-54
2023/05/03 02:11:25;;;;;;;;;;;;;;;13.60;66.86;102761.03;5121636;28;19916;-54
2023/05/03 02:13:51;;;;;;;;;;;;;;;13.64;66.95;102753.50;5122421;28;20534;-55
2023/05/03 02:16:17;;;;;;;;;;;;;;;13.75;66.40;102759.38;5122038;28;19927;-51
2023/05/03 02:18:43;;;;;;;;;;;;;;;13.86;65.93;102755.47;5122623;28;19915;-51
2023/05/03 02:21:09;;;;;;;;;;;;;;;13.66;66.41;102748.78;5121032;28;19926;-56
2023/05/03 02:23:35;;;;;;;;;;;;;;;13.61;66.89;102751.97;5125787;28;19923;-54
2023/05/03 02:26:01;;;;;;;;;;;;;;;13.56;67.16;102743.56;5121583;28;19919;-49
2023/05/03 02:28:26;;;;;;;;;;;;;;;13.62;67.16;102743.75;5123583;28;19984;-54
2023/05/03 02:30:52;;;;;;;;;;;;;;;13.60;67.26;102732.28;5124578;28;19919;-51
2023/05/03 02:33:18;;;;;;;;;;;;;;;13.58;67.34;102737.00;5125426;28;19923;-54
2023/05/03 02:35:45;;;;;;;;;;;;;;;13.51;67.61;102736.00;5126043;28;19924;-52
2023/05/03 02:38:10;;;;;;;;;;;;;;;13.32;68.56;102731.78;5125168;28;19916;-49
2023/05/03 02:40:36;;;;;;;;;;;;;;;13.53;68.13;102722.41;5127832;28;19915;-54
2023/05/03 02:43:02;;;;;;;;;;;;;;;13.34;68.70;102725.22;5124313;28;19916;-52
2023/05/03 02:45:30;;;;;;;;;;;;;;;13.30;69.56;102715.00;5123203;28;19928;-54
2023/05/03 02:47:55;;;;;;;;;;;;;;;13.30;69.50;102704.25;5127044;28;19947;-51
2023/05/03 02:50:22;;;;;;;;;;;;;;;13.17;70.55;102704.75;5120491;28;19916;-51
2023/05/03 02:52:47;;;;;;;;;;;;;;;13.16;70.62;102719.19;5113663;28;19928;-50
2023/05/03 02:55:13;;;;;;;;;;;;;;;13.15;70.44;102710.28;5108317;28;19928;-50
2023/05/03 02:57:41;;;;;;;;;;;;;;;13.11;70.48;102702.69;5089765;28;19995;-52
2023/05/03 03:00:06;;;;;;;;;;;;;;;13.16;70.71;102706.56;5124526;28;19916;-48
2023/05/03 03:02:32;;;;;;;;;;;;;;;13.19;70.52;102710.78;5090611;28;19916;-47
2023/05/03 03:04:58;;;;;;;;;;;;;;;13.34;69.71;102713.66;5108608;28;19920;-51
2023/05/03 03:07:23;;;;;;;;;;;;;;;13.35;69.28;102720.69;5106079;28;19941;-51
2023/05/03 03:09:53;;;;;;;;;;;;;;;13.48;68.53;102722.91;5089918;28;20030;-49
2023/05/03 03:12:19;;;;;;;;;;;;;;;13.46;68.55;102723.06;5092240;28;19980;-50
2023/05/03 03:14:45;;;;;;;;;;;;;;;13.40;68.47;102733.63;5121177;28;19920;-52
2023/05/03 03:17:11;;;;;;;;;;;;;;;13.60;67.39;102729.59;5089302;28;20053;-49
2023/05/03 03:19:38;;;;;;;;;;;;;;;13.54;68.04;102727.59;5089199;28;19920;-49
2023/05/03 03:22:03;;;;;;;;;;;;;;;13.48;68.45;102733.66;5126141;28;19947;-49
2023/05/03 03:24:30;;;;;;;;;;;;;;;13.36;68.42;102727.75;5088455;28;19988;-51
2023/05/03 03:26:57;;;;;;;;;;;;;;;13.33;68.80;102728.91;5109015;28;19951;-52
2023/05/03 03:29:24;;;;;;;;;;;;;;;13.13;69.36;102723.03;5106667;28;19990;-49
2023/05/03 03:31:50;;;;;;;;;;;;;;;13.21;69.81;102722.22;5109938;28;19916;-55
2023/05/03 03:34:17;;;;;;;;;;;;;;;13.32;69.10;102715.66;5091201;28;19923;-50
2023/05/03 03:36:43;;;;;;;;;;;;;;;13.37;68.97;102717.81;5110085;28;19955;-49
2023/05/03 03:39:09;;;;;;;;;;;;;;;13.24;68.83;102716.50;5124085;28;19916;-51
2023/05/03 03:41:35;;;;;;;;;;;;;;;13.33;68.52;102712.78;5124412;28;20060;-50
2023/05/03 03:44:00;;;;;;;;;;;;;;;13.29;68.50;102721.38;5106072;28;19916;-52
2023/05/03 03:46:26;;;;;;;;;;;;;;;13.41;67.87;102724.56;5108322;28;19916;-51
2023/05/03 03:48:54;;;;;;;;;;;;;;;13.53;67.32;102720.56;5123295;28;19937;-52
2023/05/03 03:51:21;;;;;;;;;;;;;;;13.26;67.65;102719.00;5087111;28;19912;-50
2023/05/03 03:53:47;;;;;;;;;;;;;;;13.54;66.87;102722.22;5106068;28;19980;-50
2023/05/03 03:56:13;;;;;;;;;;;;;;;13.50;66.91;102731.63;5091230;28;19920;-50
2023/05/03 03:58:39;;;;;;;;;;;;;;;13.42;66.73;102731.63;5089827;28;19923;-51
2023/05/03 04:01:07;;;;;;;;;;;;;;;13.37;66.89;102740.19;5122842;28;19947;-50
2023/05/03 04:03:33;;;;;;;;;;;;;;;13.47;66.15;102732.81;5122982;28;19916;-51
2023/05/03 04:05:58;;;;;;;;;;;;;;;13.45;66.29;102748.25;5089124;28;19963;-51
2023/05/03 04:08:25;;;;;;;;;;;;;;;13.50;66.44;102739.69;5108102;28;19924;-49
2023/05/03 04:10:50;;;;;;;;;;;;;;;13.18;67.36;102744.03;5088725;28;19944;-50
2023/05/03 04:13:17;;;;;;;;;;;;;;;13.20;67.23;102740.16;5108137;28;19921;-55
2023/05/03 04:15:46;;;;;;;;;;;;;;;13.61;66.04;102739.38;5087790;28;19916;-54
2023/05/03 04:18:12;;;;;;;;;;;;;;;13.70;65.21;102742.88;5122173;28;19931;-54
2023/05/03 04:20:39;;;;;;;;;;;;;;;13.69;65.29;102749.25;5089923;28;19916;-53
2023/05/03 04:23:07;;;;;;;;;;;;;;;13.28;66.08;102750.06;5089710;28;19916;-52
2023/05/03 04:25:33;;;;;;;;;;;;;;;13.54;65.40;102743.72;5107549;28;19920;-51
2023/05/03 04:28:05;;;;;;;;;;;;;;;13.47;65.27;102745.41;5120760;28;19920;-51
2023/05/03 04:30:33;;;;;;;;;;;;;;;13.39;65.97;102740.03;5124659;28;19920;-49
2023/05/03 04:33:00;;;;;;;;;;;;;;;13.22;66.33;102752.59;5120111;28;19924;-51
2023/05/03 04:35:27;;;;;;;;;;;;;;;13.31;66.33;102760.50;5124166;28;19983;-50
2023/05/03 04:37:53;;;;;;;;;;;;;;;13.32;66.46;102764.84;5117725;28;19924;-48
2023/05/03 04:40:21;;;;;;;;;;;;;;;12.99;67.29;102758.59;5122003;28;19944;-50
2023/05/03 04:42:56;;;;;;;;;;;;;;;13.15;66.66;102768.56;5117351;28;19916;-53
2023/05/03 04:45:22;;;;;;;;;;;;;;;13.19;67.05;102770.72;5121323;28;19946;-51
2023/05/03 04:47:48;;;;;;;;;;;;;;;13.33;66.37;102782.66;5083470;28;19916;-53
2023/05/03 04:50:15;;;;;;;;;;;;;;;13.48;66.17;102796.31;5119777;28;19947;-54
2023/05/03 04:52:43;;;;;;;;;;;;;;;13.62;65.55;102792.13;5112087;28;19920;-50
2023/05/03 04:55:11;;;;;;;;;;;;;;;13.59;65.57;102799.69;5124937;28;19916;-52
2023/05/03 04:57:37;;;;;;;;;;;;;;;13.62;64.99;102794.81;5121988;28;19941;-54
2023/05/03 05:00:09;;;;;;;;;;;;;;;13.85;64.98;102802.22;5125145;28;19915;-52
2023/05/03 05:02:36;;;;;;;;;;;;;;;13.66;65.24;102797.19;5122902;28;19973;-51
2023/05/03 05:05:02;;;;;;;;;;;;;;;13.21;65.58;102794.75;5123824;28;19919;-52
2023/05/03 05:07:28;;;;;;;;;;;;;;;13.80;65.17;102801.84;5124848;28;19920;-55
2023/05/03 05:09:53;;;;;;;;;;;;;;;14.05;63.87;102801.81;5123738;28;20361;-51
2023/05/03 05:12:19;;;;;;;;;;;;;;;13.11;66.60;102799.41;5124547;28;19916;-51
2023/05/03 05:14:45;;;;;;;;;;;;;;;13.43;65.10;102797.84;5120289;28;19915;-51
2023/05/03 05:17:10;;;;;;;;;;;;;;;13.25;66.51;102796.09;5124598;28;19994;-54
2023/05/03 05:19:36;;;;;;;;;;;;;;;13.32;66.50;102794.41;5125301;28;19975;-51
2023/05/03 05:22:01;;;;;;;;;;;;;;;13.06;67.71;102797.25;5128463;28;19923;-52
2023/05/03 05:24:37;;;;;;;;;;;;;;;13.02;67.74;102798.53;5125408;28;19931;-53
2023/05/03 05:27:03;;;;;;;;;;;;;;;13.08;67.46;102800.59;5125685;28;19916;-50
2023/05/03 05:29:28;;;;;;;;;;;;;;;12.95;67.58;102801.06;5121922;28;20290;-50
2023/05/03 05:31:55;;;;;;;;;;;;;;;13.06;67.82;102807.97;5124601;28;19916;-52
2023/05/03 05:34:20;;;;;;;;;;;;;;;13.21;67.88;102810.88;5120750;28;20018;-51
2023/05/03 05:36:45;;;;;;;;;;;;;;;13.22;67.29;102807.16;5123143;28;19916;-49
2023/05/03 05:39:11;;;;;;;;;;;;;;;13.18;67.33;102805.81;5122285;27;20340;-53
2023/05/03 05:41:38;;;;;;;;;;;;;;;13.21;67.30;102805.50;5126313;28;19916;-54
2023/05/03 05:44:04;;;;;;;;;;;;;;;13.25;67.50;102814.91;5121282;28;19987;-51
2023/05/03 05:46:29;;;;;;;;;;;;;;;13.44;66.98;102815.63;5125874;28;19966;-51
2023/05/03 05:48:56;;;;;;;;;;;;;;;13.45;67.06;102818.16;5152981;27;19919;-52
2023/05/03 05:51:21;;;;;;;;;;;;;;;13.64;66.57;102812.63;5117232;28;20423;-53
2023/05/03 05:53:47;;;;;;;;;;;;;;;13.58;66.79;102811.44;5123523;28;19987;-54
2023/05/03 05:56:14;;;;;;;;;;;;;;;13.70;67.04;102809.25;5118525;28;19984;-51
2023/05/03 05:58:39;;;;;;;;;;;;;;;13.95;66.14;102823.53;5117817;28;20008;-48
2023/05/03 06:01:06;;;;;;;;;;;;;;;14.10;66.10;102817.47;5123883;28;19983;-50
2023/05/03 06:03:35;;;;;;;;;;;;;;;14.12;65.56;102818.13;5118701;28;19920;-50
2023/05/03 06:06:03;;;;;;;;;;;;;;;14.07;66.53;102818.66;5120190;28;19975;-51
2023/05/03 06:08:28;;;;;;;;;;;;;;;14.26;66.24;102814.75;5119234;28;19923;-51
2023/05/03 06:10:54;;;;;;;;;;;;;;;14.16;67.03;102806.88;5119968;28;19959;-53
2023/05/03 06:13:20;;;;;;;;;;;;;;;14.27;66.53;102818.28;5120040;28;19916;-54
2023/05/03 06:15:47;;;;;;;;;;;;;;;14.33;66.92;102809.53;5121486;28;19912;-54
2023/05/03 06:18:12;;;;;;;;;;;;;;;14.47;67.46;102816.06;5118083;28;19923;-52
2023/05/03 06:20:38;;;;;;;;;;;;;;;14.39;67.26;102819.59;5117139;28;19923;-54
2023/05/03 06:23:04;;;;;;;;;;;;;;;14.62;67.39;102816.16;5117059;28;19957;-52
2023/05/03 06:25:29;;;;;;;;;;;;;;;14.16;67.96;102817.63;5119332;28;19970;-50
2023/05/03 06:27:55;;;;;;;;;;;;;;;14.61;67.19;102814.50;5119991;28;19966;-51
2023/05/03 06:30:24;;;;;;;;;;;;;;;14.81;66.49;102814.09;5116749;28;19924;-51
2023/05/03 06:32:50;;;;;;;;;;;;;;;15.03;66.54;102815.16;5122529;28;19947;-50
2023/05/03 06:35:18;;;;;;;;;;;;;;;14.81;67.20;102806.03;5122501;28;19979;-49
2023/05/03 06:37:44;;;;;;;;;;;;;;;14.86;65.88;102804.47;5121383;28;19927;-55
2023/05/03 06:40:10;;;;;;;;;;;;;;;14.93;66.35;102799.22;5126202;28;19916;-53
2023/05/03 06:42:35;;;;;;;;;;;;;;;15.11;65.58;102808.88;5119717;28;20426;-52
2023/05/03 06:45:06;;;;;;;;;;;;;;;15.02;65.89;102802.72;5122584;28;19934;-54
2023/05/03 06:47:32;;;;;;;;;;;;;;;15.36;64.88;102797.94;5152264;27;19958;-54
2023/05/03 06:49:57;;;;;;;;;;;;;;;15.30;64.61;102800.34;5117188;28;19920;-55
2023/05/03 06:52:22;;;;;;;;;;;;;;;15.45;63.26;102794.16;5109709;28;20319;-54
2023/05/03 06:54:48;;;;;;;;;;;;;;;15.56;63.87;102804.53;5118028;28;19916;-53
2023/05/03 06:57:13;;;;;;;;;;;;;;;15.47;63.03;102805.63;5125316;28;19989;-53
2023/05/03 06:59:39;;;;;;;;;;;;;;;15.67;62.92;102807.81;5116857;28;19920;-52
2023/05/03 07:02:05;;;;;;;;;;;;;;;15.69;61.66;102809.31;5119612;28;19916;-51
2023/05/03 07:04:31;;;;;;;;;;;;;;;15.45;62.35;102807.63;5120231;28;19920;-54
2023/05/03 07:06:57;;;;;;;;;;;;;;;15.46;61.86;102809.34;5118878;28;19967;-54
2023/05/03 07:09:22;;;;;;;;;;;;;;;15.48;61.38;102807.31;5119842;28;19916;-49
2023/05/03 07:11:49;;;;;;;;;;;;;;;15.74;60.59;102812.31;5124215;28;19975;-51
2023/05/03 07:14:15;;;;;;;;;;;;;;;16.10;59.51;102805.44;5115793;28;19916;-54
2023/05/03 07:16:40;;;;;;;;;;;;;;;16.42;58.82;102806.09;5119875;28;19931;-50
2023/05/03 07:19:06;;;;;;;;;;;;;;;16.57;58.54;102800.69;5118847;28;19920;-55
2023/05/03 07:21:32;;;;;;;;;;;;;;;16.54;58.25;102803.78;5119000;28;19998;-51
2023/05/03 07:23:58;;;;;;;;;;;;;;;16.65;57.52;102796.22;5115098;28;19916;-55
2023/05/03 07:26:25;;;;;;;;;;;;;;;16.32;57.90;102795.59;5119284;28;19972;-50
2023/05/03 07:28:51;;;;;;;;;;;;;;;16.08;57.88;102793.97;5114699;28;20017;-54
2023/05/03 07:31:16;;;;;;;;;;;;;;;15.89;57.81;102793.47;5118587;28;19920;-52
2023/05/03 07:33:42;;;;;;;;;;;;;;;15.95;57.44;102783.00;5118466;28;19938;-52
2023/05/03 07:36:07;;;;;;;;;;;;;;;16.34;56.49;102787.28;5117050;28;19966;-52
2023/05/03 07:38:33;;;;;;;;;;;;;;;16.02;55.87;102771.25;5118397;28;19998;-53
2023/05/03 07:40:58;;;;;;;;;;;;;;;16.16;55.73;102769.63;5119184;28;19916;-54
2023/05/03 07:43:23;;;;;;;;;;;;;;;16.06;55.68;102771.75;5120080;28;19965;-53
2023/05/03 07:45:49;;;;;;;;;;;;;;;16.19;55.85;102771.94;5115756;28;19927;-52
2023/05/03 07:48:15;;;;;;;;;;;;;;;16.25;55.34;102775.75;5117850;28;19987;-52
2023/05/03 07:50:41;;;;;;;;;;;;;;;16.51;55.39;102762.78;5121076;28;19912;-52
2023/05/03 07:53:07;;;;;;;;;;;;;;;16.77;55.01;102759.59;5109045;28;19954;-51
2023/05/03 07:55:35;;;;;;;;;;;;;;;16.78;55.15;102753.97;5103937;28;19920;-50
2023/05/03 07:58:01;;;;;;;;;;;;;;;16.94;54.35;102762.88;5105728;28;19916;-52
2023/05/03 08:00:26;;;;;;;;;;;;;;;17.16;54.01;102755.66;5085983;28;19912;-54
2023/05/03 08:02:52;;;;;;;;;;;;;;;17.04;53.49;102755.31;5100683;28;19986;-50
2023/05/03 08:05:17;;;;;;;;;;;;;;;17.57;53.59;102756.88;5111840;28;19927;-52
2023/05/03 08:07:43;;;;;;;;;;;;;;;17.61;52.67;102751.88;5110307;28;19954;-48
2023/05/03 08:10:09;;;;;;;;;;;;;;;17.74;52.99;102753.84;5101868;28;19932;-51
2023/05/03 08:12:34;;;;;;;;;;;;;;;17.77;52.50;102761.59;5101815;28;19940;-52
2023/05/03 08:15:00;;;;;;;;;;;;;;;17.47;52.16;102757.19;5102141;28;19949;-51
2023/05/03 08:17:26;;;;;;;;;;;;;;;17.71;51.58;102767.78;5103530;28;19927;-52
2023/05/03 08:19:51;;;;;;;;;;;;;;;18.17;50.77;102767.28;5108143;28;19923;-54
2023/05/03 08:22:17;;;;;;;;;;;;;;;18.18;51.06;102757.31;5102955;28;19931;-53
2023/05/03 08:24:42;;;;;;;;;;;;;;;18.28;50.71;102756.94;5105905;28;19952;-50
2023/05/03 08:27:09;;;;;;;;;;;;;;;18.38;50.40;102751.97;5102358;28;19931;-52
2023/05/03 08:29:36;;;;;;;;;;;;;;;18.00;50.67;102750.50;5107336;28;19913;-54
2023/05/03 08:32:03;;;;;;;;;;;;;;;18.23;50.51;102756.72;5102030;28;19979;-52
2023/05/03 08:34:28;;;;;;;;;;;;;;;18.16;49.68;102743.13;5104606;28;19916;-52
2023/05/03 08:36:54;;;;;;;;;;;;;;;18.27;49.37;102739.03;5106028;28;19978;-54
2023/05/03 08:39:19;;;;;;;;;;;;;;;18.53;49.09;102741.00;5104519;28;19924;-51
2023/05/03 08:41:44;;;;;;;;;;;;;;;18.54;48.96;102741.84;5098914;28;19930;-50
2023/05/03 08:44:18;;;;;;;;;;;;;;;18.65;48.85;102737.72;5104068;28;19932;-49
2023/05/03 08:46:43;;;;;;;;;;;;;;;18.84;47.80;102739.66;5101626;28;19925;-53
2023/05/03 08:49:11;;;;;;;;;;;;;;;19.00;48.45;102741.16;5097475;28;19963;-51
2023/05/03 08:51:39;;;;;;;;;;;;;;;18.98;47.79;102739.66;5101168;28;20099;-50
2023/05/03 08:54:04;;;;;;;;;;;;;;;18.68;48.70;102748.13;5096882;28;20038;-50
2023/05/03 08:56:38;;;;;;;;;;;;;;;19.17;48.04;102749.75;5101563;28;19916;-53
2023/05/03 08:59:07;;;;;;;;;;;;;;;19.04;48.21;102753.25;5096720;28;19920;-51
2023/05/03 09:01:34;;;;;;;;;;;;;;;19.09;47.84;102758.06;5103323;28;19917;-53
2023/05/03 09:03:59;;;;;;;;;;;;;;;19.32;47.84;102757.69;5099729;28;20026;-50
2023/05/03 09:06:27;;;;;;;;;;;;;;;19.71;46.61;102762.47;5102048;28;19920;-54
2023/05/03 09:08:53;;;;;;;;;;;;;;;20.01;46.60;102767.47;5086568;28;19917;-54
2023/05/03 09:11:22;;;;;;;;;;;;;;;20.02;46.72;102758.28;5102381;28;19999;-51
2023/05/03 09:13:48;;;;;;;;;;;;;;;20.07;46.58;102747.63;5103240;28;19971;-50
2023/05/03 09:16:21;;;;;;;;;;;;;;;20.02;46.02;102756.41;5103426;28;19993;-54
2023/05/03 09:18:59;;;;;;;;;;;;;;;20.41;46.14;102769.22;5103132;28;19916;-51
2023/05/03 09:21:25;;;;;;;;;;;;;;;20.69;45.73;102754.50;5099920;28;19916;-52
2023/05/03 09:23:51;;;;;;;;;;;;;;;21.25;44.50;102758.34;5102242;28;19916;-52
2023/05/03 09:26:34;;;;;;;;;;;;;;;21.57;43.61;102761.00;5100389;28;19920;-51
2023/05/03 09:29:01;;;;;;;;;;;;;;;21.83;43.21;102761.84;5095951;28;19984;-55
2023/05/03 09:31:27;;;;;;;;;;;;;;;22.51;41.91;102764.69;5099300;28;19932;-53
2023/05/03 09:33:53;;;;;;;;;;;;;;;22.88;41.10;102769.22;5102711;28;19955;-55
2023/05/03 09:36:18;;;;;;;;;;;;;;;23.46;39.88;102772.34;5100282;28;19923;-54
2023/05/03 09:38:43;;;;;;;;;;;;;;;23.93;39.91;102763.31;5106497;28;19966;-53
2023/05/03 09:41:09;;;;;;;;;;;;;;;24.43;38.83;102777.50;5101430;28;19924;-52
2023/05/03 09:43:34;;;;;;;;;;;;;;;24.97;37.32;102774.44;5105912;28;19924;-55
2023/05/03 09:46:12;;;;;;;;;;;;;;;25.62;36.97;102783.22;5100521;28;19920;-50
2023/05/03 09:48:38;;;;;;;;;;;;;;;25.98;35.78;102784.78;5104032;28;19990;-53
2023/05/03 09:51:04;;;;;;;;;;;;;;;26.60;34.94;102785.56;5104443;28;19916;-53
2023/05/03 09:53:33;;;;;;;;;;;;;;;27.18;34.16;102779.56;5105973;28;19927;-53
2023/05/03 09:56:01;;;;;;;;;;;;;;;27.55;33.82;102788.94;5104308;28;19917;-50
2023/05/03 09:58:29;;;;;;;;;;;;;;;27.54;32.61;102788.13;5103292;28;19916;-52
2023/05/03 10:00:55;;;;;;;;;;;;;;;27.27;33.12;102793.63;5099504;28;19951;-51
2023/05/03 10:03:30;;;;;;;;;;;;;;;28.02;32.70;102792.78;5107424;28;19920;-53
2023/05/03 10:05:57;;;;;;;;;;;;;;;28.69;31.25;102800.47;5106027;28;19924;-53
2023/05/03 10:08:23;;;;;;;;;;;;;;;29.03;30.78;102789.00;5107791;28;20072;-52
2023/05/03 10:10:50;;;;;;;;;;;;;;;29.10;30.12;102788.72;5110463;28;19932;-55
2023/05/03 10:13:16;;;;;;;;;;;;;;;29.62;29.76;102784.84;5110021;28;19920;-52
2023/05/03 10:15:42;;;;;;;;;;;;;;;29.71;30.01;102785.09;5110172;28;19916;-54
2023/05/03 10:18:12;;;;;;;;;;;;;;;30.13;29.16;102783.03;5111787;28;19920;-51
2023/05/03 10:20:49;;;;;;;;;;;;;;;30.27;28.78;102786.00;5111486;28;19916;-51
2023/05/03 10:23:14;;;;;;;;;;;;;;;30.65;28.18;102788.31;5104031;28;19959;-54
2023/05/03 10:25:59;;;;;;;;;;;;;;;31.13;28.10;102784.06;5115655;28;19920;-58
2023/05/03 10:28:24;;;;;;;;;;;;;;;30.47;27.92;102782.34;5115039;28;19916;-54
2023/05/03 10:30:50;;;;;;;;;;;;;;;31.35;27.52;102782.81;5114589;28;19928;-53
2023/05/03 10:33:15;;;;;;;;;;;;;;;31.71;27.34;102782.44;5111318;28;19920;-56
2023/05/03 10:35:42;;;;;;;;;;;;;;;31.60;27.31;102779.81;5111945;28;19939;-55
2023/05/03 10:38:14;;;;;;;;;;;;;;;32.01;26.50;102777.69;5108400;28;19924;-54
2023/05/03 10:40:41;;;;;;;;;;;;;;;32.06;26.57;102780.38;5112684;28;19944;-50
2023/05/03 10:43:30;;;;;;;;;;;;;;;32.56;25.70;102776.41;5113759;28;19916;-55
2023/05/03 10:45:56;;;;;;;;;;;;;;;32.51;25.53;102780.06;5100969;28;19924;-57
2023/05/03 10:48:21;;;;;;;;;;;;;;;32.34;26.37;102775.06;5107280;28;20038;-55
2023/05/03 10:50:47;;;;;;;;;;;;;;;32.04;25.72;102775.16;5098972;28;19939;-51
2023/05/03 10:53:32;;;;;;;;;;;;;;;31.90;25.90;102776.97;5106877;28;19963;-53
2023/05/03 10:56:06;;;;;;;;;;;;;;;32.53;25.85;102771.50;5095079;28;19917;-54
2023/05/03 10:58:42;;;;;;;;;;;;;;;32.65;25.35;102769.06;5082559;28;19916;-53
2023/05/03 11:01:08;;;;;;;;;;;;;;;33.47;24.76;102758.56;5097619;28;19939;-55
2023/05/03 11:03:49;;;;;;;;;;;;;;;33.24;24.91;102752.03;5108809;28;19920;-52
2023/05/03 11:06:31;;;;;;;;;;;;;;;33.39;25.31;102753.69;5109023;28;19920;-53
2023/05/03 11:08:57;;;;;;;;;;;;;;;33.66;24.87;102754.88;5107447;28;19975;-54
2023/05/03 11:11:23;;;;;;;;;;;;;;;33.77;24.58;102751.88;5105760;28;19917;-53
2023/05/03 11:13:52;;;;;;;;;;;;;;;34.04;24.69;102751.06;5104927;28;19916;-54
2023/05/03 11:16:17;;;;;;;;;;;;;;;33.79;23.76;102761.53;5107052;28;19920;-52
2023/05/03 11:18:44;;;;;;;;;;;;;;;34.07;23.94;102750.41;5103852;28;19916;-54
2023/05/03 11:21:10;;;;;;;;;;;;;;;34.47;23.54;102752.56;5104236;28;19945;-55
2023/05/03 11:23:38;;;;;;;;;;;;;;;34.43;23.71;102751.56;5100604;28;19920;-55
2023/05/03 11:26:06;;;;;;;;;;;;;;;34.52;23.93;102744.16;5107672;28;19923;-56
2023/05/03 11:28:31;;;;;;;;;;;;;;;34.62;23.17;102731.16;5106410;28;19919;-54
2023/05/03 11:30:57;;;;;;;;;;;;;;;35.00;22.88;102736.28;5099596;28;19916;-55
2023/05/03 11:33:22;;;;;;;;;;;;;;;34.45;23.75;102732.63;5103983;28;19928;-56
2023/05/03 11:35:47;;;;;;;;;;;;;;;34.85;23.62;102726.41;5100813;28;19950;-54
2023/05/03 11:38:13;;;;;;;;;;;;;;;34.90;22.91;102726.25;5101196;28;19955;-55
2023/05/03 11:40:40;;;;;;;;;;;;;;;35.17;22.75;102728.06;5103102;28;19943;-56
2023/05/03 11:43:08;;;;;;;;;;;;;;;35.81;22.64;102723.22;5100421;28;19983;-55
2023/05/03 11:45:39;;;;;;;;;;;;;;;35.50;22.29;102721.31;5100749;28;20414;-58
2023/05/03 11:48:05;;;;;;;;;;;;;;;35.27;22.84;102715.03;5103622;28;19912;-55
2023/05/03 11:50:43;;;;;;;;;;;;;;;35.40;22.15;102716.06;5104898;28;19916;-52
2023/05/03 11:53:10;;;;;;;;;;;;;;;35.71;22.39;102717.94;5102787;28;19916;-54
2023/05/03 11:55:46;;;;;;;;;;;;;;;36.38;21.95;102721.47;5096858;28;19927;-53
2023/05/03 11:58:16;;;;;;;;;;;;;;;36.58;22.47;102710.81;5107110;28;19955;-54
2023/05/03 12:00:45;;;;;;;;;;;;;;;36.82;21.79;102713.06;5106990;28;19916;-51
2023/05/03 12:03:18;;;;;;;;;;;;;;;36.68;21.17;102709.66;5107331;28;19923;-56
2023/05/03 12:05:44;;;;;;;;;;;;;;;37.48;20.99;102702.63;5107795;28;20048;-57
2023/05/03 12:08:10;;;;;;;;;;;;;;;37.65;20.69;102698.94;5109692;28;19923;-56
2023/05/03 12:10:36;;;;;;;;;;;;;;;37.55;21.06;102694.56;5107273;28;19920;-53
2023/05/03 12:13:01;;;;;;;;;;;;;;;37.44;21.21;102693.31;5109622;28;19916;-58
2023/05/03 12:15:31;;;;;;;;;;;;;;;37.83;20.59;102691.28;5106956;28;20022;-56
2023/05/03 12:18:00;;;;;;;;;;;;;;;37.10;21.24;102683.97;5104870;28;20003;-52
2023/05/03 12:20:30;;;;;;;;;;;;;;;37.56;20.45;102685.03;5107626;28;19924;-53
2023/05/03 12:22:58;;;;;;;;;;;;;;;37.07;21.14;102685.47;5108859;28;19920;-53
2023/05/03 12:25:23;;;;;;;;;;;;;;;37.63;20.89;102672.53;5110579;28;19916;-54
2023/05/03 12:27:50;;;;;;;;;;;;;;;37.97;20.60;102671.50;5106054;28;19998;-53
2023/05/03 12:30:16;;;;;;;;;;;;;;;38.14;20.84;102661.28;5107421;28;19979;-53
2023/05/03 12:32:41;;;;;;;;;;;;;;;38.14;20.50;102658.50;5104291;28;19931;-53
2023/05/03 12:35:10;;;;;;;;;;;;;;;37.76;21.11;102649.13;5104077;28;19935;-57